< < Back
Terminal Aerodrome Forecast


Current Version              Previous Versions:   1  2  3  4  5  6  7  8  9  

Terminal Aerodrome Forecast

418
FTUS44 KOHX 312300
TAFBNA
TAF
KBNA 312338Z 0100/0124 13005KT P6SM OVC100
     FM010800 17008KT P6SM OVC100 WS020/19035KT
     FM011500 18015G30KT 6SM -SHRA BKN030 OVC050
     FM011900 19015G30KT 4SM -RA BR BKN010 OVC020=

Latest METAR

844
SAUS70 KWBC 011900 RRS
MTRBNA
METAR KBNA 011853Z 19012KT 6SM -RA BR BKN013 OVC015 10/08 A2977 RMK AO2
PK WND 19027/1754 SLP082 P0002 T01000083


USA.gov is the U.S. government's official web portal to all federal, state and local government web resources and services.